Time,TemperatureF,DewpointF,PressureIn,WindDirection,WindDirectionDegrees,WindSpeedMPH,WindSpeedGustMPH,Humidity,HourlyPrecipIn,Conditions,Clouds,dailyrainin,SoftwareType,DateUTC
2013-07-20 01:02:00,70.0,65.0,-100.00,WSW,250,4.0,7.0,85,-99.99,,,-99.99,,2013-07-20 05:02:00,
2013-07-20 01:11:00,70.0,65.0,-100.00,WSW,250,4.0,7.0,85,-99.99,,,-99.99,,2013-07-20 05:11:00,
2013-07-20 01:32:00,70.0,65.0,-100.00,WSW,250,4.0,7.0,82,-99.99,,,-99.99,,2013-07-20 05:32:00,
2013-07-20 01:52:00,70.0,65.0,-100.00,WSW,250,4.0,7.0,82,-99.99,,,-99.99,,2013-07-20 05:52:00,
2013-07-20 02:21:00,69.0,64.0,-100.00,SSW,200,9.0,9.0,85,-99.99,,,-99.99,,2013-07-20 06:21:00,
2013-07-20 02:52:00,68.0,65.0,-100.00,SSW,210,7.0,7.0,89,-99.99,,,-99.99,,2013-07-20 06:52:00,
2013-07-20 03:33:00,69.0,62.0,-100.00,SW,230,9.0,11.0,77,-99.99,,,-99.99,,2013-07-20 07:33:00,
2013-07-20 03:44:00,69.0,63.0,-100.00,SW,230,9.0,11.0,79,-99.99,,,-99.99,,2013-07-20 07:44:00,
2013-07-20 03:53:00,69.0,63.0,-100.00,SW,230,9.0,11.0,79,-99.99,,,-99.99,,2013-07-20 07:53:00,
2013-07-20 04:01:00,69.0,62.0,-100.00,SW,230,9.0,11.0,77,-99.99,,,-99.99,,2013-07-20 08:01:00,
2013-07-20 04:11:00,69.0,63.0,-100.00,WSW,240,9.0,13.0,79,-99.99,,,-99.99,,2013-07-20 08:11:00,
2013-07-20 04:22:00,70.0,62.0,-100.00,WSW,240,11.0,13.0,76,-99.99,,,-99.99,,2013-07-20 08:22:00,
2013-07-20 04:44:00,70.0,62.0,-100.00,WSW,240,11.0,13.0,76,-99.99,,,-99.99,,2013-07-20 08:44:00,
2013-07-20 04:52:00,70.0,62.0,-100.00,WSW,240,11.0,13.0,76,-99.99,,,-99.99,,2013-07-20 08:52:00,
2013-07-20 05:01:00,70.0,62.0,-100.00,WSW,240,11.0,13.0,76,-99.99,,,-99.99,,2013-07-20 09:01:00,
2013-07-20 05:33:00,69.0,64.0,-100.00,SW,230,11.0,13.0,83,-99.99,,,-99.99,,2013-07-20 09:33:00,
2013-07-20 05:43:00,69.0,63.0,-100.00,SW,230,11.0,16.0,81,-99.99,,,-99.99,,2013-07-20 09:43:00,
2013-07-20 05:53:00,69.0,63.0,-100.00,SW,230,11.0,16.0,81,-99.99,,,-99.99,,2013-07-20 09:53:00,
2013-07-20 06:01:00,69.0,63.0,-100.00,WSW,240,11.0,13.0,82,-99.99,,,-99.99,,2013-07-20 10:01:00,
2013-07-20 06:11:00,69.0,63.0,-100.00,WSW,240,11.0,13.0,82,-99.99,,,-99.99,,2013-07-20 10:11:00,
2013-07-20 07:01:00,69.0,64.0,-100.00,NW,320,18.0,25.0,85,-99.99,,,-99.99,,2013-07-20 11:01:00,
2013-07-20 07:21:00,68.0,61.0,-100.00,NNW,330,18.0,22.0,76,-99.99,,,-99.99,,2013-07-20 11:21:00,
2013-07-20 07:32:00,68.0,61.0,-100.00,NNW,330,13.0,18.0,76,-99.99,,,-99.99,,2013-07-20 11:32:00,
2013-07-20 07:43:00,68.0,61.0,-100.00,NNW,330,16.0,20.0,78,-99.99,,,-99.99,,2013-07-20 11:43:00,
2013-07-20 07:50:00,67.0,60.0,-100.00,West,280,16.0,20.0,78,-99.99,,,-99.99,,2013-07-20 11:50:00,
2013-07-20 08:01:00,68.0,60.0,-100.00,WNW,300,16.0,22.0,77,-99.99,,,-99.99,,2013-07-20 12:01:00,
2013-07-20 08:10:00,67.0,60.0,-100.00,WNW,290,16.0,20.0,79,-99.99,,,-99.99,,2013-07-20 12:10:00,
2013-07-20 08:11:00,68.0,60.0,-100.00,WNW,300,16.0,22.0,77,-99.99,,,-99.99,,2013-07-20 12:11:00,
2013-07-20 08:22:00,68.0,60.0,-100.00,WNW,300,16.0,22.0,77,-99.99,,,-99.99,,2013-07-20 12:22:00,
2013-07-20 08:32:00,67.0,60.0,-100.00,West,280,16.0,20.0,78,-99.99,,,-99.99,,2013-07-20 12:32:00,
2013-07-20 09:01:00,67.0,60.0,-100.00,WNW,290,16.0,20.0,79,-99.99,,,-99.99,,2013-07-20 13:01:00,
2013-07-20 10:32:00,65.0,55.0,-100.00,WSW,240,13.0,16.0,69,-99.99,,,-99.99,,2013-07-20 14:32:00,
2013-07-20 10:43:00,65.0,55.0,-100.00,WSW,240,13.0,16.0,69,-99.99,,,-99.99,,2013-07-20 14:43:00,
2013-07-20 10:52:00,65.0,57.0,-100.00,West,280,13.0,18.0,75,-99.99,,,-99.99,,2013-07-20 14:52:00,
2013-07-20 11:01:00,65.0,57.0,-100.00,West,280,13.0,18.0,75,-99.99,,,-99.99,,2013-07-20 15:01:00,
2013-07-20 11:11:00,65.0,57.0,-100.00,West,280,13.0,18.0,75,-99.99,,,-99.99,,2013-07-20 15:11:00,
2013-07-20 11:33:00,65.0,54.0,-100.00,West,270,13.0,18.0,67,-99.99,,,-99.99,,2013-07-20 15:33:00,
2013-07-20 11:44:00,65.0,54.0,-100.00,West,270,13.0,18.0,67,-99.99,,,-99.99,,2013-07-20 15:44:00,
2013-07-20 11:52:00,65.0,54.0,-100.00,West,270,13.0,18.0,67,-99.99,,,-99.99,,2013-07-20 15:52:00,
2013-07-20 12:01:00,65.0,51.0,-100.00,West,260,16.0,20.0,61,-99.99,,,-99.99,,2013-07-20 16:01:00,
2013-07-20 12:11:00,65.0,51.0,-100.00,West,260,16.0,20.0,61,-99.99,,,-99.99,,2013-07-20 16:11:00,
2013-07-20 12:22:00,65.0,51.0,-100.00,West,260,16.0,20.0,61,-99.99,,,-99.99,,2013-07-20 16:22:00,
2013-07-20 12:32:00,64.0,54.0,-100.00,WNW,300,16.0,18.0,68,-99.99,,,-99.99,,2013-07-20 16:32:00,
2013-07-20 12:43:00,64.0,53.0,-100.00,WNW,300,16.0,20.0,67,-99.99,,,-99.99,,2013-07-20 16:43:00,
2013-07-20 12:52:00,64.0,53.0,-100.00,WNW,300,16.0,20.0,67,-99.99,,,-99.99,,2013-07-20 16:52:00,
2013-07-20 13:02:00,64.0,53.0,-100.00,WNW,300,16.0,20.0,67,-99.99,,,-99.99,,2013-07-20 17:02:00,
2013-07-20 13:11:00,64.0,51.0,-100.00,NW,320,16.0,20.0,63,-99.99,,,-99.99,,2013-07-20 17:11:00,
2013-07-20 13:22:00,64.0,51.0,-100.00,NNW,330,13.0,20.0,62,-99.99,,,-99.99,,2013-07-20 17:22:00,
2013-07-20 13:32:00,64.0,50.0,-100.00,WNW,300,13.0,20.0,59,-99.99,,,-99.99,,2013-07-20 17:32:00,
2013-07-20 13:43:00,64.0,49.0,-100.00,NW,320,13.0,18.0,56,-99.99,,,-99.99,,2013-07-20 17:43:00,
2013-07-20 13:53:00,64.0,49.0,-100.00,NW,320,13.0,18.0,56,-99.99,,,-99.99,,2013-07-20 17:53:00,
2013-07-20 14:01:00,64.0,48.0,-100.00,WNW,290,16.0,22.0,55,-99.99,,,-99.99,,2013-07-20 18:01:00,
2013-07-20 14:11:00,64.0,48.0,-100.00,WNW,290,16.0,22.0,55,-99.99,,,-99.99,,2013-07-20 18:11:00,
2013-07-20 14:22:00,64.0,49.0,-100.00,NW,320,13.0,18.0,58,-99.99,,,-99.99,,2013-07-20 18:22:00,
2013-07-20 14:32:00,65.0,48.0,-100.00,NW,310,13.0,20.0,55,-99.99,,,-99.99,,2013-07-20 18:32:00,
2013-07-20 14:43:00,65.0,47.0,-100.00,NNW,330,13.0,18.0,53,-99.99,,,-99.99,,2013-07-20 18:43:00,
2013-07-20 14:52:00,65.0,46.0,-100.00,West,270,13.0,18.0,50,-99.99,,,-99.99,,2013-07-20 18:52:00,
2013-07-20 15:10:00,65.0,49.0,-100.00,NW,310,13.0,18.0,56,-99.99,,,-99.99,,2013-07-20 19:10:00,
2013-07-20 15:11:00,65.0,47.0,-100.00,NW,320,13.0,18.0,51,-99.99,,,-99.99,,2013-07-20 19:11:00,
2013-07-20 15:22:00,65.0,48.0,-100.00,NNW,330,13.0,18.0,54,-99.99,,,-99.99,,2013-07-20 19:22:00,
2013-07-20 15:32:00,65.0,49.0,-100.00,NW,310,13.0,18.0,56,-99.99,,,-99.99,,2013-07-20 19:32:00,
2013-07-20 16:32:00,65.0,48.0,-100.00,NW,310,16.0,20.0,54,-99.99,,,-99.99,,2013-07-20 20:32:00,
2013-07-20 16:43:00,65.0,48.0,-100.00,NW,310,16.0,20.0,54,-99.99,,,-99.99,,2013-07-20 20:43:00,
2013-07-20 17:01:00,65.0,47.0,-100.00,WNW,300,16.0,22.0,51,-99.99,,,-99.99,,2013-07-20 21:01:00,
2013-07-20 17:11:00,65.0,47.0,-100.00,WNW,300,16.0,22.0,51,-99.99,,,-99.99,,2013-07-20 21:11:00,
2013-07-20 17:22:00,65.0,47.0,-100.00,WNW,300,16.0,20.0,51,-99.99,,,-99.99,,2013-07-20 21:22:00,
2013-07-20 17:32:00,65.0,45.0,-100.00,West,280,16.0,20.0,48,-99.99,,,-99.99,,2013-07-20 21:32:00,
2013-07-20 17:42:00,65.0,45.0,-100.00,West,280,16.0,20.0,48,-99.99,,,-99.99,,2013-07-20 21:42:00,
2013-07-20 17:52:00,65.0,45.0,-100.00,West,280,16.0,20.0,48,-99.99,,,-99.99,,2013-07-20 21:52:00,
2013-07-20 18:01:00,65.0,45.0,-100.00,West,280,16.0,20.0,48,-99.99,,,-99.99,,2013-07-20 22:01:00,
2013-07-20 18:21:00,65.0,47.0,-100.00,West,270,13.0,18.0,51,-99.99,,,-99.99,,2013-07-20 22:21:00,
2013-07-20 18:32:00,65.0,47.0,-100.00,West,270,13.0,18.0,51,-99.99,,,-99.99,,2013-07-20 22:32:00,
2013-07-20 18:42:00,65.0,46.0,-100.00,WNW,290,16.0,18.0,50,-99.99,,,-99.99,,2013-07-20 22:42:00,
2013-07-20 18:52:00,65.0,47.0,-100.00,West,280,16.0,20.0,51,-99.99,,,-99.99,,2013-07-20 22:52:00,
2013-07-20 19:00:00,65.0,47.0,-100.00,WSW,240,16.0,20.0,50,-99.99,,,-99.99,,2013-07-20 23:00:00,
2013-07-20 19:01:00,65.0,47.0,-100.00,West,280,16.0,20.0,51,-99.99,,,-99.99,,2013-07-20 23:01:00,
2013-07-20 19:11:00,65.0,48.0,-100.00,West,260,16.0,22.0,53,-99.99,,,-99.99,,2013-07-20 23:11:00,
2013-07-20 19:22:00,65.0,47.0,-100.00,WSW,240,16.0,20.0,50,-99.99,,,-99.99,,2013-07-20 23:22:00,
2013-07-20 19:32:00,65.0,47.0,-100.00,WSW,240,16.0,20.0,50,-99.99,,,-99.99,,2013-07-20 23:32:00,
2013-07-20 21:01:00,65.0,48.0,-100.00,South,170,13.0,18.0,54,-99.99,,,-99.99,,2013-07-21 01:01:00,
2013-07-20 21:11:00,64.0,49.0,-100.00,SSE,150,13.0,18.0,56,-99.99,,,-99.99,,2013-07-21 01:11:00,
2013-07-20 21:22:00,64.0,49.0,-100.00,South,190,13.0,18.0,57,-99.99,,,-99.99,,2013-07-21 01:22:00,
2013-07-20 21:30:00,64.0,50.0,-100.00,NNE,30,11.0,13.0,60,-99.99,,,-99.99,,2013-07-21 01:30:00,
2013-07-20 21:32:00,64.0,49.0,-100.00,ESE,120,13.0,18.0,58,-99.99,,,-99.99,,2013-07-21 01:32:00,
2013-07-20 21:52:00,64.0,49.0,-100.00,ENE,60,13.0,16.0,57,-99.99,,,-99.99,,2013-07-21 01:52:00,
2013-07-20 22:01:00,64.0,50.0,-100.00,NNE,30,11.0,13.0,60,-99.99,,,-99.99,,2013-07-21 02:01:00,
2013-07-20 22:11:00,64.0,50.0,-100.00,NNE,30,11.0,13.0,60,-99.99,,,-99.99,,2013-07-21 02:11:00,
2013-07-20 22:22:00,64.0,50.0,-100.00,NNE,30,11.0,13.0,60,-99.99,,,-99.99,,2013-07-21 02:22:00,
2013-07-20 22:42:00,63.0,49.0,-100.00,NE,40,9.0,13.0,61,-99.99,,,-99.99,,2013-07-21 02:42:00,
2013-07-20 22:52:00,63.0,49.0,-100.00,NE,40,9.0,13.0,61,-99.99,,,-99.99,,2013-07-21 02:52:00,
2013-07-20 23:21:00,62.0,49.0,-100.00,NNE,30,9.0,13.0,62,-99.99,,,-99.99,,2013-07-21 03:21:00,
2013-07-20 23:42:00,61.0,50.0,-100.00,NNE,30,9.0,11.0,66,-99.99,,,-99.99,,2013-07-21 03:42:00,